• Join FlightAware (Why Join?)
  • Login
  • US Flag 
04:11PM EDT


 

Airport Tracker/Info


-or-


 

Live Flight TrackerFlight Track Log ✈ N9205P ✈ 29-Nov-2013 ✈ KCFD - KDKB

Flight Track Log - Related Links

Times and Time Zones

All times are in EST time to prevent confusion due to time zone crossing. See the N9205P flight status page for this flight to view local times or setup timezone preferences in your user account.

Time Position Orientation Groundspeed Altitude Reporting Facility
EST Latitude Longitude Course Direction KTS MPH feet Rate Location/Type
11:20AM 30.8178 -96.2483 28° Northeast 107 123 3,700  Level Houston Center
11:21AM 30.8456 -96.2306 29° Northeast 112 129 4,400 600 Climbing Houston Center
11:22AM 30.8678 -96.2200 22° Northeast 114 131 4,800 540 Climbing Houston Center
11:22AM 30.8756 -96.2150 29° Northeast 112 129 5,000 660 Climbing Houston Center
11:23AM 30.8944 -96.2039 27° Northeast 110 127 5,500 540 Climbing Houston Center
11:24AM 30.9231 -96.1883 25° Northeast 112 129 6,000 540 Climbing Houston Center
11:25AM 30.9525 -96.1719 26° Northeast 115 132 6,700 540 Climbing Houston Center
11:26AM 30.9806 -96.1542 29° Northeast 116 133 7,200 360 Climbing Houston Center
11:27AM 31.0128 -96.1389 22° Northeast 121 139 7,500 120 Climbing Houston Center
11:28AM 31.0469 -96.1156 30° Northeast 137 158 7,500  Level Houston Center
11:29AM 31.0922 -96.0872 28° Northeast 153 176 7,500  Level Houston Center
11:30AM 31.1300 -96.0642 28° Northeast 156 180 7,500  Level Houston Center
11:31AM 31.1694 -96.0397 28° Northeast 160 184 7,500  Level Houston Center
11:32AM 31.2100 -96.0175 25° Northeast 161 185 7,500  Level Houston Center
11:33AM 31.2489 -95.9936 28° Northeast 158 182 7,500  Level Houston Center
11:34AM 31.2886 -95.9697 27° Northeast 159 183 7,500  Level Houston Center
11:35AM 31.3369 -95.9411 27° Northeast 161 185 7,500  Level Houston Center
11:36AM 31.3756 -95.9181 27° Northeast 158 182 7,500  Level Houston Center
11:37AM 31.4158 -95.8944 27° Northeast 160 184 7,500  Level Houston Center
11:38AM 31.4564 -95.8714 26° Northeast 161 185 7,500  Level Houston Center
11:39AM 31.4972 -95.8486 25° Northeast 160 184 7,500  Level Houston Center
11:40AM 31.5381 -95.8247 27° Northeast 163 188 7,500  Level Houston Center
11:41AM 31.5853 -95.7961 27° Northeast 161 185 7,500  Level Houston Center
11:42AM 31.6258 -95.7711 28° Northeast 162 186 7,500  Level Houston Center
11:43AM 31.6681 -95.7481 25° Northeast 165 190 7,500  Level Houston Center
11:44AM 31.7006 -95.7278 28° Northeast 161 185 7,500  Level Fort Worth Center
11:45AM 31.7492 -95.6997 26° Northeast 162 186 7,500  Level Fort Worth Center
11:46AM 31.7903 -95.6775 25° Northeast 162 186 7,500  Level Fort Worth Center
11:48AM 31.8322 -95.6536 26° Northeast 166 191 7,500  Level Fort Worth Center
11:49AM 31.8717 -95.6283 29° Northeast 163 188 7,500  Level Fort Worth Center
11:50AM 31.9122 -95.6061 25° Northeast 161 185 7,500  Level Fort Worth Center
11:51AM 31.9533 -95.5806 28° Northeast 165 190 7,500  Level Fort Worth Center
11:52AM 32.0025 -95.5514 27° Northeast 164 189 7,500  Level Fort Worth Center
11:53AM 32.0433 -95.5267 27° Northeast 164 189 7,500  Level Fort Worth Center
11:54AM 32.0844 -95.5017 27° Northeast 166 191 7,500  Level Fort Worth Center
11:55AM 32.1244 -95.4769 28° Northeast 163 188 7,500  Level Fort Worth Center
11:56AM 32.1653 -95.4517 28° Northeast 163 188 7,500  Level Fort Worth Center
11:57AM 32.2050 -95.4275 27° Northeast 161 185 7,500 -60 Level Fort Worth Center
11:58AM 32.2489 -95.4019 26° Northeast 166 191 7,400 -60 Descending Fort Worth Center
11:59AM 32.2878 -95.3767 29° Northeast 161 185 7,400  Level Fort Worth Center
12:00PM 32.3350 -95.3464 28° Northeast 160 184 7,400 -180 Level Fort Worth Center
12:01PM 32.3783 -95.3222 25° Northeast 171 197 7,100 -300 Descending Fort Worth Center
12:02PM 32.4228 -95.2953 27° Northeast 179 206 6,900 -60 Descending Fort Worth Center
12:03PM 32.4653 -95.2694 27° Northeast 173 199 7,000  Climbing Fort Worth Center
12:04PM 32.5083 -95.2442 26° Northeast 166 191 7,000  Level Fort Worth Center
12:05PM 32.5506 -95.2167 29° Northeast 171 197 7,000 120 Level Fort Worth Center
12:06PM 32.5906 -95.1925 27° Northeast 165 190 7,300 240 Climbing Fort Worth Center
12:07PM 32.6289 -95.1708 25° Northeast 154 177 7,600 60 Climbing Fort Worth Center
12:08PM 32.6778 -95.1403 28° Northeast 165 190 7,500 -60 Descending Fort Worth Center
12:09PM 32.7194 -95.1158 26° Northeast 168 193 7,500  Level Fort Worth Center
12:10PM 32.7617 -95.0919 25° Northeast 168 193 7,500  Level Fort Worth Center
12:11PM 32.8044 -95.0667 26° Northeast 171 197 7,500  Level Fort Worth Center
12:12PM 32.8481 -95.0419 25° Northeast 173 199 7,500  Level Fort Worth Center
12:13PM 32.8908 -95.0167 26° Northeast 172 198 7,500  Level Fort Worth Center
12:14PM 32.9425 -94.9856 27° Northeast 174 200 7,500  Level Fort Worth Center
12:15PM 32.9850 -94.9597 27° Northeast 172 198 7,500  Level Fort Worth Center
12:16PM 33.0272 -94.9333 28° Northeast 172 198 7,500  Level Fort Worth Center
12:18PM 33.0703 -94.9078 26° Northeast 172 198 7,500  Level Fort Worth Center
12:19PM 33.1119 -94.8789 30° Northeast 174 200 7,500  Level Fort Worth Center
12:20PM 33.1533 -94.8514 29° Northeast 172 198 7,500  Level Fort Worth Center
12:21PM 33.2039 -94.8206 27° Northeast 170 196 7,500  Level Fort Worth Center
12:22PM 33.2467 -94.7944 27° Northeast 171 197 7,500 -60 Level Fort Worth Center
12:23PM 33.2889 -94.7681 28° Northeast 171 197 7,400 -60 Descending Fort Worth Center
12:24PM 33.3325 -94.7433 25° Northeast 172 198 7,400  Level Fort Worth Center
12:25PM 33.3736 -94.7158 29° Northeast 171 197 7,400  Level Fort Worth Center
12:26PM 33.4150 -94.6886 29° Northeast 170 196 7,400  Level Fort Worth Center
12:27PM 33.4653 -94.6575 27° Northeast 169 194 7,400  Level Fort Worth Center
12:28PM 33.5072 -94.6300 29° Northeast 170 196 7,500  Climbing Fort Worth Center
12:29PM 33.5481 -94.6025 29° Northeast 170 196 7,500  Level Fort Worth Center
12:30PM 33.5886 -94.5739 30° Northeast 169 194 7,500  Level Fort Worth Center
12:31PM 33.6308 -94.5486 26° Northeast 169 194 7,500  Level Fort Worth Center
12:32PM 33.6731 -94.5242 26° Northeast 169 194 7,500  Level Fort Worth Center
12:33PM 33.7225 -94.4914 29° Northeast 168 193 7,500  Level Fort Worth Center
12:34PM 33.7628 -94.4614 32° Northeast 169 194 7,500 -60 Level Fort Worth Center
12:35PM 33.8044 -94.4339 29° Northeast 170 196 7,400 -60 Descending Fort Worth Center
12:36PM 33.8467 -94.4078 27° Northeast 170 196 7,400  Level Fort Worth Center
12:37PM 33.8878 -94.3814 28° Northeast 169 194 7,400  Level Fort Worth Center
12:38PM 33.9308 -94.3556 26° Northeast 171 197 7,400  Level Fort Worth Center
12:39PM 33.9722 -94.3289 28° Northeast 169 194 7,400  Level Fort Worth Center
12:40PM 34.0236 -94.2983 26° Northeast 171 197 7,400  Level Fort Worth Center
12:41PM 34.0664 -94.2722 27° Northeast 171 197 7,400  Level Fort Worth Center
12:42PM 34.1094 -94.2472 26° Northeast 171 197 7,400  Level Fort Worth Center
12:43PM 34.1522 -94.2192 28° Northeast 173 199 7,400  Level Fort Worth Center
12:44PM 34.1950 -94.1925 27° Northeast 174 200 7,400  Level Fort Worth Center
12:45PM 34.2392 -94.1667 26° Northeast 175 201 7,400  Level Fort Worth Center
12:46PM 34.2903 -94.1328 29° Northeast 175 201 7,400  Level Fort Worth Center
12:48PM 34.3342 -94.1047 28° Northeast 177 204 7,500  Climbing Fort Worth Center
12:49PM 34.3778 -94.0769 28° Northeast 177 204 7,500  Level Fort Worth Center
12:50PM 34.4206 -94.0489 28° Northeast 176 203 7,500  Level Fort Worth Center
12:51PM 34.4647 -94.0217 27° Northeast 177 204 7,500  Level Fort Worth Center
12:52PM 34.5164 -93.9889 28° Northeast 175 201 7,500  Level Fort Worth Center
12:53PM 34.5608 -93.9614 27° Northeast 178 205 7,500  Level Fort Worth Center
12:54PM 34.6064 -93.9353 25° Northeast 175 201 7,500  Level Fort Worth Center
12:55PM 34.6519 -93.9072 27° Northeast 176 203 7,500  Level Fort Worth Center
12:56PM 34.6975 -93.8783 28° Northeast 176 203 7,500  Level Fort Worth Center
12:57PM 34.7428 -93.8492 28° Northeast 175 201 7,500  Level Fort Worth Center
12:58PM 34.7853 -93.8247 25° Northeast 175 201 7,500  Level Fort Worth Center
12:59PM 34.8297 -93.7956 28° Northeast 174 200 7,500  Level Fort Worth Center
01:00PM 34.8756 -93.7672 27° Northeast 175 201 7,500 -60 Level Fort Worth Center
01:01PM 34.9397 -93.7269 27° Northeast 176 203 7,400 -60 Descending Memphis Center
01:02PM 34.9833 -93.7006 26° Northeast 176 203 7,400  Level Memphis Center
01:03PM 35.0258 -93.6728 28° Northeast 174 200 7,400  Level Memphis Center
01:04PM 35.0689 -93.6458 27° Northeast 175 201 7,400  Level Memphis Center
01:05PM 35.1122 -93.6183 27° Northeast 175 201 7,400  Level Memphis Center
01:07PM 35.1558 -93.5919 26° Northeast 174 200 7,400  Level Memphis Center
01:08PM 35.1986 -93.5639 28° Northeast 174 200 7,400  Level Memphis Center
01:09PM 35.2489 -93.5278 30° Northeast 175 201 7,400  Level Memphis Center
01:10PM 35.2917 -93.5000 28° Northeast 174 200 7,400  Level Memphis Center
01:11PM 35.3344 -93.4733 27° Northeast 173 199 7,400  Level Memphis Center
01:12PM 35.3767 -93.4458 28° Northeast 173 199 7,400  Level Memphis Center
01:13PM 35.4181 -93.4161 30° Northeast 172 198 7,400  Level Memphis Center
01:14PM 35.4611 -93.3903 26° Northeast 172 198 7,400  Level Memphis Center
01:15PM 35.5044 -93.3639 26° Northeast 172 198 7,400  Level Memphis Center
01:16PM 35.5464 -93.3358 29° Northeast 172 198 7,400  Level Memphis Center
01:17PM 35.5972 -93.3028 28° Northeast 172 198 7,400  Level Memphis Center
01:18PM 35.6394 -93.2750 28° Northeast 172 198 7,400  Level Memphis Center
01:19PM 35.6817 -93.2478 28° Northeast 171 197 7,500  Climbing Memphis Center
01:20PM 35.7228 -93.2203 29° Northeast 170 196 7,400 -60 Descending Memphis Center
01:21PM 35.7642 -93.1914 30° Northeast 170 196 7,400  Level Memphis Center
01:22PM 35.8069 -93.1639 28° Northeast 171 197 7,400  Level Memphis Center
01:23PM 35.8494 -93.1356 28° Northeast 172 198 7,400  Level Memphis Center
01:24PM 35.8914 -93.1067 29° Northeast 172 198 7,400  Level Memphis Center
01:25PM 35.9414 -93.0742 28° Northeast 171 197 7,400  Level Memphis Center
01:26PM 35.9831 -93.0447 30° Northeast 171 197 7,400  Level Memphis Center
01:27PM 36.0236 -93.0142 31° Northeast 171 197 7,400  Level Memphis Center
01:28PM 36.0656 -92.9847 30° Northeast 172 198 7,400  Level Memphis Center
01:29PM 36.1069 -92.9561 29° Northeast 171 197 7,400  Level Memphis Center
01:30PM 36.1489 -92.9272 29° Northeast 171 197 7,400  Level Memphis Center
01:31PM 36.1914 -92.9003 27° Northeast 172 198 7,500  Climbing Memphis Center
01:32PM 36.2422 -92.8678 27° Northeast 172 198 7,400 -60 Descending Memphis Center
01:33PM 36.2842 -92.8397 28° Northeast 172 198 7,400  Level Memphis Center
01:34PM 36.3267 -92.8136 26° Northeast 171 197 7,400  Level Memphis Center
01:35PM 36.3678 -92.7825 31° Northeast 172 198 7,400  Level Memphis Center
01:36PM 36.4089 -92.7561 27° Northeast 169 194 7,400  Level Memphis Center
01:37PM 36.4494 -92.7261 31° Northeast 168 193 7,400  Level Memphis Center
01:38PM 36.4942 -92.6975 27° Northeast 168 193 7,400  Level Memphis Center
01:39PM 36.5339 -92.6667 32° Northeast 168 193 7,400  Level Memphis Center
01:41PM 36.5744 -92.6411 27° Northeast 165 190 7,400  Level Memphis Center
01:42PM 36.6147 -92.6106 31° Northeast 167 192 7,400  Level Memphis Center
01:42PM 36.6478 -92.5903 26° Northeast 166 191 7,400  Level Kansas City Center
01:43PM 36.6886 -92.5644 27° Northeast 165 190 7,400  Level Kansas City Center
01:44PM 36.7286 -92.5381 28° Northeast 163 188 7,400  Level Kansas City Center
01:45PM 36.7678 -92.5094 30° Northeast 162 186 7,400  Level Kansas City Center
01:46PM 36.8078 -92.4811 30° Northeast 164 189 7,400  Level Kansas City Center
01:47PM 36.8478 -92.4542 28° Northeast 163 188 7,400  Level Kansas City Center
01:48PM 36.8861 -92.4272 29° Northeast 161 185 7,400  Level Kansas City Center
01:49PM 36.9350 -92.3964 27° Northeast 162 186 7,400  Level Kansas City Center
01:50PM 36.9742 -92.3683 30° Northeast 162 186 7,400  Level Kansas City Center
01:51PM 37.0139 -92.3397 30° Northeast 163 188 7,400  Level Kansas City Center
01:52PM 37.0528 -92.3106 31° Northeast 163 188 7,400  Level Kansas City Center
01:53PM 37.0931 -92.2828 29° Northeast 164 189 7,500  Climbing Kansas City Center
01:55PM 37.1333 -92.2533 30° Northeast 165 190 7,400 -60 Descending Kansas City Center
01:56PM 37.1733 -92.2253 29° Northeast 165 190 7,400  Level Kansas City Center
01:57PM 37.2139 -92.1969 29° Northeast 166 191 7,400  Level Kansas City Center
01:58PM 37.2628 -92.1631 29° Northeast 166 191 7,400  Level Kansas City Center
01:59PM 37.3036 -92.1358 28° Northeast 166 191 7,500  Climbing Kansas City Center
02:00PM 37.3431 -92.1075 30° Northeast 165 190 7,400  Descending Kansas City Center
02:01PM 37.3839 -92.0797 28° Northeast 165 190 7,500  Climbing Kansas City Center
02:02PM 37.4258 -92.0525 27° Northeast 167 192 7,500  Level Kansas City Center
02:03PM 37.4664 -92.0236 29° Northeast 168 193 7,500  Level Kansas City Center
02:04PM 37.5061 -91.9928 32° Northeast 167 192 7,600  Climbing Kansas City Center
02:05PM 37.5475 -91.9642 29° Northeast 169 194 7,500 -60 Descending Kansas City Center
02:06PM 37.5967 -91.9294 29° Northeast 169 194 7,500  Level Kansas City Center
02:07PM 37.6367 -91.9003 30° Northeast 167 192 7,600  Climbing Kansas City Center
02:08PM 37.6778 -91.8700 30° Northeast 169 194 7,600  Level Kansas City Center
02:09PM 37.7186 -91.8425 28° Northeast 168 193 7,600 -60 Level Kansas City Center
02:10PM 37.7597 -91.8133 29° Northeast 168 193 7,500  Descending Kansas City Center
02:11PM 37.7992 -91.7828 31° Northeast 168 193 7,600  Climbing Kansas City Center
02:12PM 37.8392 -91.7542 29° Northeast 165 190 7,600  Level Kansas City Center
02:13PM 37.8883 -91.7194 29° Northeast 168 193 7,600 -60 Level Kansas City Center
02:14PM 37.9300 -91.6914 28° Northeast 169 194 7,500 -60 Descending Kansas City Center
02:15PM 37.9706 -91.6611 30° Northeast 170 196 7,500  Level Kansas City Center
02:16PM 38.0106 -91.6322 30° Northeast 167 192 7,500  Level Kansas City Center
02:17PM 38.0497 -91.6031 30° Northeast 164 189 7,500 -60 Level Kansas City Center
02:18PM 38.0911 -91.5758 27° Northeast 166 191 7,400 -60 Descending Kansas City Center
02:19PM 38.1311 -91.5472 29° Northeast 165 190 7,400  Level Kansas City Center
02:20PM 38.1714 -91.5200 28° Northeast 164 189 7,500 60 Climbing Kansas City Center
02:21PM 38.2200 -91.4872 28° Northeast 164 189 7,600  Climbing Kansas City Center
02:22PM 38.2606 -91.4600 28° Northeast 165 190 7,600  Level Kansas City Center
02:23PM 38.3006 -91.4322 29° Northeast 164 189 7,600  Level Kansas City Center
02:24PM 38.3408 -91.4056 27° Northeast 163 188 7,600 -60 Level Kansas City Center
02:25PM 38.3764 -91.3803 29° Northeast 164 189 7,500  Descending Kansas City Center
02:26PM 38.4244 -91.3447 30° Northeast 166 191 7,600  Climbing Kansas City Center
02:27PM 38.4647 -91.3169 28° Northeast 165 190 7,600  Level Kansas City Center
02:28PM 38.5039 -91.2872 31° Northeast 164 189 7,600  Level Kansas City Center
02:29PM 38.5447 -91.2581 29° Northeast 167 192 7,600 -60 Level Kansas City Center
02:31PM 38.5842 -91.2306 29° Northeast 164 189 7,500  Descending Kansas City Center
02:32PM 38.6253 -91.2022 28° Northeast 166 191 7,600  Climbing Kansas City Center
02:33PM 38.6656 -91.1739 29° Northeast 165 190 7,600  Level Kansas City Center
02:34PM 38.7072 -91.1444 29° Northeast 169 194 7,600  Level Kansas City Center
02:35PM 38.7558 -91.1086 30° Northeast 168 193 7,600  Level Kansas City Center
02:36PM 38.7972 -91.0803 28° Northeast 169 194 7,600  Level Kansas City Center
02:37PM 38.8383 -91.0519 28° Northeast 168 193 7,600 -60 Level Kansas City Center
02:38PM 38.8786 -91.0225 30° Northeast 167 192 7,500 -60 Descending Kansas City Center
02:39PM 38.9178 -90.9911 32° Northeast 166 191 7,500  Level Kansas City Center
02:40PM 38.9575 -90.9606 31° Northeast 166 191 7,500  Level Kansas City Center
02:41PM 38.9969 -90.9297 31° Northeast 166 191 7,500  Level Kansas City Center
02:42PM 39.0378 -90.9019 28° Northeast 166 191 7,500  Level Kansas City Center
02:43PM 39.0864 -90.8669 29° Northeast 166 191 7,500  Level Kansas City Center
02:44PM 39.1264 -90.8375 30° Northeast 166 191 7,500  Level Kansas City Center
02:45PM 39.1667 -90.8083 29° Northeast 166 191 7,500  Level Kansas City Center
02:46PM 39.2069 -90.7786 30° Northeast 166 191 7,500  Level Kansas City Center
02:47PM 39.2486 -90.7494 28° Northeast 169 194 7,500  Level Kansas City Center
02:48PM 39.2886 -90.7197 30° Northeast 167 192 7,500  Level Kansas City Center
02:49PM 39.3283 -90.6903 30° Northeast 166 191 7,500  Level Kansas City Center
02:50PM 39.3689 -90.6603 30° Northeast 167 192 7,600  Climbing Kansas City Center
02:51PM 39.4178 -90.6261 28° Northeast 167 192 7,600 -60 Level Kansas City Center
02:52PM 39.4578 -90.5972 29° Northeast 166 191 7,500 -120 Descending Kansas City Center
02:53PM 39.4981 -90.5681 29° Northeast 165 190 7,400 -60 Descending Kansas City Center
02:54PM 39.5378 -90.5369 31° Northeast 167 192 7,400  Level Kansas City Center
02:55PM 39.5778 -90.5092 28° Northeast 164 189 7,400  Level Kansas City Center
02:56PM 39.6175 -90.4792 30° Northeast 165 190 7,400  Level Kansas City Center
02:57PM 39.6572 -90.4486 31° Northeast 166 191 7,400  Level Kansas City Center
02:58PM 39.6964 -90.4192 30° Northeast 164 189 7,400  Level Kansas City Center
02:59PM 39.7397 -90.3881 29° Northeast 164 189 7,400  Level Kansas City Center
03:00PM 39.7786 -90.3586 30° Northeast 163 188 7,400  Level Kansas City Center
03:01PM 39.8181 -90.3294 30° Northeast 163 188 7,400  Level Kansas City Center
03:02PM 39.8664 -90.2964 28° Northeast 164 189 7,400  Level Kansas City Center
03:03PM 39.9047 -90.2675 30° Northeast 161 185 7,500  Climbing Kansas City Center
03:04PM 39.9450 -90.2389 29° Northeast 162 186 7,500  Level Kansas City Center
03:05PM 39.9850 -90.2111 28° Northeast 163 188 7,600  Climbing Kansas City Center
03:06PM 40.0236 -90.1789 33° Northeast 164 189 7,500 -60 Descending Kansas City Center
03:07PM 40.0631 -90.1497 30° Northeast 164 189 7,500  Level Kansas City Center
03:09PM 40.1042 -90.1200 29° Northeast 167 192 7,500  Level Kansas City Center
03:10PM 40.1431 -90.0900 31° Northeast 164 189 7,600  Climbing Kansas City Center
03:11PM 40.1911 -90.0511 32° Northeast 168 193 7,500 -60 Descending Kansas City Center
03:12PM 40.2292 -90.0169 34° Northeast 167 192 7,500  Level Kansas City Center
03:13PM 40.2700 -89.9878 29° Northeast 167 192 7,600  Climbing Kansas City Center
03:14PM 40.3094 -89.9564 31° Northeast 166 191 7,500 -60 Descending Kansas City Center
03:15PM 40.3492 -89.9236 32° Northeast 167 192 7,500  Level Kansas City Center
03:15PM 40.3800 -89.8992 31° Northeast 167 192 7,500  Level Chicago Center
03:16PM 40.4203 -89.8694 29° Northeast 166 191 7,500  Level Chicago Center
03:17PM 40.4603 -89.8378 31° Northeast 167 192 7,500  Level Chicago Center
03:19PM 40.4997 -89.8072 30° Northeast 165 190 7,500  Level Chicago Center
03:20PM 40.5475 -89.7714 30° Northeast 166 191 7,600  Climbing Chicago Center
03:21PM 40.5883 -89.7422 28° Northeast 167 192 7,600 -60 Level Chicago Center
03:22PM 40.6289 -89.7128 29° Northeast 168 193 7,500  Descending Chicago Center
03:23PM 40.6686 -89.6817 31° Northeast 168 193 7,600  Climbing Chicago Center
03:24PM 40.7086 -89.6497 31° Northeast 169 194 7,500  Descending Chicago Center
03:25PM 40.7483 -89.6181 31° Northeast 168 193 7,600  Climbing Chicago Center
03:26PM 40.7969 -89.5814 30° Northeast 169 194 7,500 -60 Descending Chicago Center
03:27PM 40.8364 -89.5508 30° Northeast 167 192 7,500  Level Chicago Center
03:28PM 40.8775 -89.5203 29° Northeast 167 192 7,500  Level Chicago Center
03:29PM 40.9186 -89.4906 29° Northeast 169 194 7,500  Level Chicago Center
03:30PM 40.9600 -89.4592 30° Northeast 170 196 7,500  Level Chicago Center
03:31PM 41.0011 -89.4283 30° Northeast 170 196 7,500  Level Chicago Center
03:32PM 41.0428 -89.3983 29° Northeast 170 196 7,500  Level Chicago Center
03:33PM 41.0831 -89.3664 31° Northeast 170 196 7,500  Level Chicago Center
03:34PM 41.1319 -89.3264 32° Northeast 171 197 7,600  Climbing Chicago Center
03:35PM 41.1731 -89.2925 32° Northeast 173 199 7,600 -60 Level Chicago Center
03:36PM 41.2150 -89.2622 29° Northeast 173 199 7,500  Descending Chicago Center
03:37PM 41.2569 -89.2314 29° Northeast 172 198 7,600 -60 Climbing Chicago Center
03:38PM 41.2989 -89.1994 30° Northeast 173 199 7,400 -300 Descending Chicago Center
03:39PM 41.3414 -89.1658 31° Northeast 177 204 7,100 -300 Descending Chicago Center
03:40PM 41.3869 -89.1347 27° Northeast 180 207 6,900 -300 Descending Chicago Center
03:41PM 41.4392 -89.0933 31° Northeast 182 209 6,500 -360 Descending Chicago Center
03:42PM 41.4847 -89.0597 29° Northeast 184 212 6,200 -300 Descending Chicago Center
03:43PM 41.5269 -89.0236 33° Northeast 182 209 6,000 -300 Descending Chicago Center
03:44PM 41.5731 -88.9897 29° Northeast 185 213 5,600 -420 Descending Chicago Center
03:45PM 41.6158 -88.9547 31° Northeast 182 209 5,200 -300 Descending Chicago Center
03:46PM 41.6558 -88.9164 36° Northeast 178 205 5,000 -240 Descending Chicago Center